Salem, New Hampshire
Current Conditions -  °F | °C
As of 4:54 PM on Thursday 27 Nov 2014 (Local Time) from KLWM Reporting Station
Overcast Overcast  
Wind Chill: 28°   Ceiling: 2300
Heat Index: 33°   Visibility: 10mi
Dew Point: 27°   Wind: 6mph
Humidity: 78%   Direction: 340°NNW
Pressure: 30"   Gusts: NA
Location:  42.79°N, 71.2°W
Report Text: KLWM 272154Z 34005KT 10SM OVC023 01/M03 A3000 RMK AO2 SLP159 T00061028
Loading
Personal Weather Stations






























Interactive Weather Map New forecast layout! Learn more

10-Day Weather Forecast

Advertisements
Track Severe Weather on mobile